Time;durP1;ratioP1;P1;durP2;ratioP2;P2;SDS_P1;SDS_P2;PMS_P1;PMS_P2;Temp;Humidity;BMP_temperature;BMP_pressure;BME280_temperature;BME280_humidity;BME280_pressure;Samples;Min_cycle;Max_cycle;Signal;HPM_P1;HPM_P2
2021/03/23 00:00:18;;;;;;;15.90;8.05;;;;;;;;;;5032094;28;20069;-70
2021/03/23 00:02:51;;;;;;;15.07;8.20;;;;;;;;;;5032159;28;20095;-69
2021/03/23 00:05:18;;;;;;;12.15;7.07;;;;;;;;;;5031731;28;20061;-69
2021/03/23 00:07:44;;;;;;;18.73;8.07;;;;;;;;;;5012334;28;20085;-69
2021/03/23 00:10:11;;;;;;;14.82;8.30;;;;;;;;;;5012396;28;20092;-69
2021/03/23 00:12:37;;;;;;;16.52;9.60;;;;;;;;;;5010979;28;20078;-69
2021/03/23 00:15:09;;;;;;;13.75;8.10;;;;;;;;;;5011980;28;20501;-69
2021/03/23 00:17:36;;;;;;;18.02;8.73;;;;;;;;;;5011867;28;20100;-69
2021/03/23 00:20:07;;;;;;;19.83;9.30;;;;;;;;;;5012205;28;20057;-69
2021/03/23 00:22:37;;;;;;;17.52;8.80;;;;;;;;;;5012077;28;20061;-69
2021/03/23 00:25:05;;;;;;;18.02;10.38;;;;;;;;;;5012134;28;20065;-69
2021/03/23 00:27:32;;;;;;;14.75;8.50;;;;;;;;;;5029254;28;20046;-70
2021/03/23 00:29:58;;;;;;;22.88;9.35;;;;;;;;;;5031075;28;20088;-70
2021/03/23 00:32:24;;;;;;;20.20;8.82;;;;;;;;;;5031740;28;20053;-70
2021/03/23 00:34:51;;;;;;;16.08;8.80;;;;;;;;;;5005367;28;20057;-69
2021/03/23 00:37:17;;;;;;;18.15;8.60;;;;;;;;;;5011243;28;20481;-69
2021/03/23 00:39:43;;;;;;;13.98;8.73;;;;;;;;;;5010676;28;20835;-70
2021/03/23 00:42:10;;;;;;;15.60;8.30;;;;;;;;;;4994549;28;20054;-69
2021/03/23 00:44:36;;;;;;;14.48;7.93;;;;;;;;;;5011845;28;20108;-70
2021/03/23 00:47:03;;;;;;;18.05;9.48;;;;;;;;;;5011149;28;20061;-69
2021/03/23 00:49:29;;;;;;;14.32;7.55;;;;;;;;;;5011710;28;20137;-69
2021/03/23 00:51:55;;;;;;;15.23;8.73;;;;;;;;;;5011992;28;20088;-69
2021/03/23 00:54:21;;;;;;;18.33;8.15;;;;;;;;;;5011789;28;20062;-69
2021/03/23 00:56:48;;;;;;;15.25;8.02;;;;;;;;;;5011085;28;20471;-69
2021/03/23 00:59:14;;;;;;;14.85;8.40;;;;;;;;;;4993995;28;20057;-69
2021/03/23 01:01:40;;;;;;;17.52;8.10;;;;;;;;;;5011511;28;20124;-69
2021/03/23 01:04:19;;;;;;;14.63;7.63;;;;;;;;;;5012053;28;20042;-69
2021/03/23 01:06:46;;;;;;;18.30;7.93;;;;;;;;;;5010693;28;20061;-68
2021/03/23 01:09:12;;;;;;;16.58;8.43;;;;;;;;;;5030651;28;20076;-69
2021/03/23 01:11:38;;;;;;;15.65;7.95;;;;;;;;;;5031019;28;20407;-69
2021/03/23 01:14:04;;;;;;;14.32;7.57;;;;;;;;;;5031092;28;20095;-69
2021/03/23 01:16:30;;;;;;;12.77;6.97;;;;;;;;;;5030435;28;20095;-69
2021/03/23 01:18:56;;;;;;;13.35;7.72;;;;;;;;;;5031257;28;20050;-69
2021/03/23 01:21:22;;;;;;;16.35;7.85;;;;;;;;;;5030855;28;20049;-69
2021/03/23 01:23:49;;;;;;;16.95;7.82;;;;;;;;;;5031214;28;20063;-69
2021/03/23 01:26:15;;;;;;;15.60;7.70;;;;;;;;;;5011180;28;20073;-69
2021/03/23 01:28:41;;;;;;;16.85;7.68;;;;;;;;;;5011276;28;20105;-69
2021/03/23 01:31:07;;;;;;;14.45;8.13;;;;;;;;;;5011280;28;20481;-69
2021/03/23 01:33:33;;;;;;;22.77;9.80;;;;;;;;;;5011097;28;20050;-69
2021/03/23 01:35:59;;;;;;;19.05;9.18;;;;;;;;;;5010679;28;20069;-69
2021/03/23 01:38:25;;;;;;;15.95;9.13;;;;;;;;;;5011034;28;20497;-69
2021/03/23 01:40:52;;;;;;;18.20;8.98;;;;;;;;;;5011093;28;20591;-69
2021/03/23 01:43:26;;;;;;;21.70;10.63;;;;;;;;;;5014513;28;20076;-69
2021/03/23 01:45:55;;;;;;;18.63;9.30;;;;;;;;;;4996444;28;20630;-69
2021/03/23 01:48:27;;;;;;;17.33;10.07;;;;;;;;;;4997385;28;20077;-69
2021/03/23 01:51:02;;;;;;;23.58;10.07;;;;;;;;;;5014695;28;20119;-69
2021/03/23 01:53:43;;;;;;;17.25;9.80;;;;;;;;;;4997307;28;20053;-69
2021/03/23 01:56:09;;;;;;;19.98;10.88;;;;;;;;;;5012892;28;20054;-69
2021/03/23 01:58:38;;;;;;;23.33;11.50;;;;;;;;;;4997104;28;20050;-69
2021/03/23 02:01:06;;;;;;;22.30;10.70;;;;;;;;;;4987239;28;20041;-69
2021/03/23 02:03:33;;;;;;;23.13;10.38;;;;;;;;;;5015304;28;20487;-69
2021/03/23 02:06:00;;;;;;;19.83;10.20;;;;;;;;;;5022404;28;20137;-69
2021/03/23 02:08:27;;;;;;;20.20;10.93;;;;;;;;;;5033872;28;20123;-69
2021/03/23 02:10:55;;;;;;;21.38;11.55;;;;;;;;;;5024305;28;20495;-69
2021/03/23 02:13:21;;;;;;;28.63;11.98;;;;;;;;;;5016615;28;20049;-69
2021/03/23 02:15:47;;;;;;;22.30;10.88;;;;;;;;;;5028188;28;20476;-69
2021/03/23 02:18:23;;;;;;;19.92;10.48;;;;;;;;;;5028014;28;20057;-69
2021/03/23 02:21:00;;;;;;;23.67;11.27;;;;;;;;;;5033925;28;20053;-69
2021/03/23 02:23:30;;;;;;;21.50;11.50;;;;;;;;;;5032253;28;20049;-69
2021/03/23 02:25:57;;;;;;;26.58;13.55;;;;;;;;;;5015558;28;20049;-69
2021/03/23 02:28:23;;;;;;;22.85;11.65;;;;;;;;;;5025651;28;20077;-69
2021/03/23 02:30:50;;;;;;;23.25;12.25;;;;;;;;;;5017054;28;20111;-69
2021/03/23 02:33:16;;;;;;;26.48;13.20;;;;;;;;;;5016217;28;20076;-69
2021/03/23 02:35:42;;;;;;;27.58;12.73;;;;;;;;;;5033062;28;20500;-69
2021/03/23 02:38:09;;;;;;;24.10;11.77;;;;;;;;;;5033651;28;20598;-69
2021/03/23 02:40:35;;;;;;;22.38;12.38;;;;;;;;;;5033498;28;20080;-69
2021/03/23 02:43:01;;;;;;;27.65;12.68;;;;;;;;;;5033502;28;20131;-69
2021/03/23 02:45:28;;;;;;;26.33;13.00;;;;;;;;;;5032639;28;20582;-69
2021/03/23 02:47:54;;;;;;;34.63;14.48;;;;;;;;;;5015709;28;20112;-69
2021/03/23 02:50:20;;;;;;;24.65;12.20;;;;;;;;;;5033307;28;20049;-69
2021/03/23 02:52:46;;;;;;;29.30;15.45;;;;;;;;;;5006754;28;20049;-69
2021/03/23 02:55:13;;;;;;;28.92;13.82;;;;;;;;;;5047041;22;20099;-70
2021/03/23 02:57:39;;;;;;;28.42;14.23;;;;;;;;;;4999368;28;20050;-69
2021/03/23 03:00:11;;;;;;;25.90;12.60;;;;;;;;;;4999656;28;20107;-70
2021/03/23 03:02:37;;;;;;;31.30;13.60;;;;;;;;;;4999969;28;20104;-69
2021/03/23 03:05:05;;;;;;;26.35;13.18;;;;;;;;;;5015728;28;20054;-70
2021/03/23 03:07:31;;;;;;;30.65;14.75;;;;;;;;;;4998299;28;20142;-70
2021/03/23 03:09:59;;;;;;;22.10;12.48;;;;;;;;;;5015952;28;20123;-69
2021/03/23 03:12:25;;;;;;;27.10;13.05;;;;;;;;;;5032591;28;20056;-70
2021/03/23 03:14:51;;;;;;;25.10;12.65;;;;;;;;;;5023779;28;20053;-70
2021/03/23 03:17:17;;;;;;;24.52;12.25;;;;;;;;;;5015480;28;20050;-70
2021/03/23 03:19:44;;;;;;;25.13;13.43;;;;;;;;;;5004279;28;20056;-69
2021/03/23 03:22:10;;;;;;;24.17;12.25;;;;;;;;;;5013483;28;20471;-69
2021/03/23 03:24:36;;;;;;;26.20;12.85;;;;;;;;;;4997385;28;20101;-69
2021/03/23 03:27:02;;;;;;;21.42;12.45;;;;;;;;;;5006710;28;20052;-70
2021/03/23 03:29:28;;;;;;;26.98;12.73;;;;;;;;;;5015196;28;20050;-69
2021/03/23 03:31:54;;;;;;;22.58;12.15;;;;;;;;;;5015334;28;20103;-69
2021/03/23 03:34:21;;;;;;;29.17;13.88;;;;;;;;;;5015169;28;20049;-69
2021/03/23 03:36:47;;;;;;;25.48;12.00;;;;;;;;;;5010979;28;20089;-70
2021/03/23 03:39:13;;;;;;;30.02;14.05;;;;;;;;;;5021217;28;20073;-70
2021/03/23 03:41:39;;;;;;;27.10;12.82;;;;;;;;;;4996181;28;20077;-69
2021/03/23 03:44:06;;;;;;;30.15;13.88;;;;;;;;;;5031410;28;20053;-70
2021/03/23 03:46:32;;;;;;;24.90;12.38;;;;;;;;;;5014454;28;20054;-69
2021/03/23 03:48:59;;;;;;;25.30;13.75;;;;;;;;;;5031388;28;20053;-69
2021/03/23 03:51:25;;;;;;;28.02;13.95;;;;;;;;;;5031184;28;20061;-70
2021/03/23 03:53:52;;;;;;;27.35;13.90;;;;;;;;;;5031181;28;20077;-69
2021/03/23 03:56:18;;;;;;;25.33;12.35;;;;;;;;;;5030483;28;20053;-70
2021/03/23 03:58:45;;;;;;;29.23;14.48;;;;;;;;;;5015140;28;20060;-70
2021/03/23 04:01:11;;;;;;;30.45;14.73;;;;;;;;;;5031440;28;20049;-70
2021/03/23 04:03:37;;;;;;;25.60;13.57;;;;;;;;;;5032426;28;20128;-70
2021/03/23 04:06:03;;;;;;;27.17;14.23;;;;;;;;;;5030979;28;20554;-70
2021/03/23 04:08:31;;;;;;;30.10;14.60;;;;;;;;;;5014391;28;20041;-70
2021/03/23 04:11:02;;;;;;;26.52;12.95;;;;;;;;;;4995409;28;20049;-70
2021/03/23 04:13:28;;;;;;;24.58;12.85;;;;;;;;;;4995999;28;20050;-70
2021/03/23 04:15:56;;;;;;;28.35;13.65;;;;;;;;;;5014928;28;20176;-69
2021/03/23 04:18:25;;;;;;;30.35;12.70;;;;;;;;;;5007153;28;20099;-70
2021/03/23 04:20:52;;;;;;;31.40;13.77;;;;;;;;;;5006580;28;20099;-70
2021/03/23 04:23:24;;;;;;;27.23;14.20;;;;;;;;;;5014860;28;20073;-70
2021/03/23 04:25:51;;;;;;;23.73;12.63;;;;;;;;;;4998498;28;20049;-70
2021/03/23 04:28:17;;;;;;;28.55;13.13;;;;;;;;;;5015140;28;20045;-70
2021/03/23 04:30:44;;;;;;;27.38;12.65;;;;;;;;;;5031119;28;20051;-70
2021/03/23 04:33:10;;;;;;;25.88;11.90;;;;;;;;;;5014440;28;20100;-70
2021/03/23 04:35:51;;;;;;;24.58;12.38;;;;;;;;;;5013903;28;20467;-70
2021/03/23 04:38:28;;;;;;;22.23;12.18;;;;;;;;;;5030048;28;20092;-70
2021/03/23 04:40:55;;;;;;;20.73;11.43;;;;;;;;;;4999517;28;20107;-70
2021/03/23 04:43:28;;;;;;;28.17;14.15;;;;;;;;;;4997999;28;20107;-70
2021/03/23 04:45:54;;;;;;;24.33;11.75;;;;;;;;;;5013811;28;20051;-69
2021/03/23 04:48:21;;;;;;;24.67;12.77;;;;;;;;;;5014455;28;20054;-70
2021/03/23 04:50:47;;;;;;;24.77;12.38;;;;;;;;;;4981559;28;20534;-70
2021/03/23 04:53:22;;;;;;;25.05;12.07;;;;;;;;;;4997591;28;20096;-70
2021/03/23 04:55:48;;;;;;;27.23;12.93;;;;;;;;;;4996968;28;20096;-70
2021/03/23 04:58:14;;;;;;;23.00;11.52;;;;;;;;;;4997408;28;20042;-70
2021/03/23 05:00:40;;;;;;;23.88;12.20;;;;;;;;;;5031370;28;20418;-70
2021/03/23 05:03:17;;;;;;;22.02;12.50;;;;;;;;;;5013874;28;20061;-70
2021/03/23 05:05:43;;;;;;;19.98;10.98;;;;;;;;;;4997872;28;20049;-70
2021/03/23 05:08:10;;;;;;;23.52;12.48;;;;;;;;;;4997212;28;20083;-70
2021/03/23 05:10:37;;;;;;;25.20;11.77;;;;;;;;;;5013881;28;20186;-70
2021/03/23 05:13:03;;;;;;;23.80;11.77;;;;;;;;;;5013941;28;20057;-70
2021/03/23 05:15:29;;;;;;;25.73;13.80;;;;;;;;;;5012804;28;20050;-72
2021/03/23 05:17:56;;;;;;;19.25;11.95;;;;;;;;;;5034286;28;20049;-72
2021/03/23 05:20:22;;;;;;;24.45;11.95;;;;;;;;;;5017866;28;20117;-72
2021/03/23 05:22:50;;;;;;;23.17;11.85;;;;;;;;;;5034036;28;20053;-72
2021/03/23 05:25:16;;;;;;;23.90;12.93;;;;;;;;;;5017489;28;20053;-72
2021/03/23 05:27:43;;;;;;;25.25;12.77;;;;;;;;;;5017129;28;20053;-72
2021/03/23 05:30:09;;;;;;;27.83;12.32;;;;;;;;;;5033699;28;20111;-72
2021/03/23 05:32:36;;;;;;;25.42;13.52;;;;;;;;;;5033674;28;20053;-72
2021/03/23 05:35:06;;;;;;;24.77;11.88;;;;;;;;;;5017424;28;20060;-72
2021/03/23 05:37:45;;;;;;;31.40;13.48;;;;;;;;;;5029734;28;20056;-72
2021/03/23 05:40:37;;;;;;;24.13;12.43;;;;;;;;;;5033336;28;20042;-72
2021/03/23 05:43:21;;;;;;;24.35;12.45;;;;;;;;;;5016826;28;20565;-72
2021/03/23 05:45:48;;;;;;;26.65;12.68;;;;;;;;;;5016805;28;20099;-72
2021/03/23 05:48:31;;;;;;;22.25;13.43;;;;;;;;;;5033302;28;20049;-71
2021/03/23 05:51:03;;;;;;;26.70;12.95;;;;;;;;;;5017176;28;20099;-71
2021/03/23 05:54:16;;;;;;;24.80;12.77;;;;;;;;;;5034398;28;20534;-72
2021/03/23 05:56:43;;;;;;;26.75;12.45;;;;;;;;;;5032878;28;20053;-72
2021/03/23 05:59:15;;;;;;;25.50;13.70;;;;;;;;;;5016671;28;20053;-72
2021/03/23 06:01:47;;;;;;;23.90;13.40;;;;;;;;;;5033374;28;20050;-71
2021/03/23 06:04:17;;;;;;;24.63;12.55;;;;;;;;;;5017244;28;20064;-72
2021/03/23 06:06:53;;;;;;;24.15;13.38;;;;;;;;;;5017059;28;20057;-72
2021/03/23 06:09:28;;;;;;;29.02;13.07;;;;;;;;;;5033466;28;20098;-72
2021/03/23 06:11:58;;;;;;;29.92;12.77;;;;;;;;;;5017079;28;20053;-72
2021/03/23 06:14:40;;;;;;;26.45;13.43;;;;;;;;;;5017072;28;20119;-72
2021/03/23 06:17:11;;;;;;;27.67;13.18;;;;;;;;;;5000479;28;20131;-71
2021/03/23 06:20:19;;;;;;;29.88;13.38;;;;;;;;;;5033454;28;20041;-72
2021/03/23 06:23:22;;;;;;;26.75;11.80;;;;;;;;;;4997159;28;20058;-72
2021/03/23 06:26:10;;;;;;;25.73;13.93;;;;;;;;;;5013715;28;20053;-72
2021/03/23 06:28:55;;;;;;;25.98;13.20;;;;;;;;;;4995816;28;20100;-72
2021/03/23 06:31:24;;;;;;;24.95;12.07;;;;;;;;;;5026187;28;20057;-72
2021/03/23 06:33:51;;;;;;;29.73;12.05;;;;;;;;;;5030840;28;20127;-72
2021/03/23 06:36:27;;;;;;;25.20;12.38;;;;;;;;;;5032435;28;20515;-72
2021/03/23 06:38:53;;;;;;;24.75;12.82;;;;;;;;;;5000633;28;20045;-72
2021/03/23 06:41:30;;;;;;;25.23;12.02;;;;;;;;;;5034057;28;20049;-72
2021/03/23 06:44:14;;;;;;;21.38;11.20;;;;;;;;;;5007155;28;20137;-72
2021/03/23 06:46:43;;;;;;;20.48;11.55;;;;;;;;;;4999810;28;20053;-71
2021/03/23 06:49:15;;;;;;;23.88;12.55;;;;;;;;;;5000007;28;20076;-71
2021/03/23 06:51:50;;;;;;;27.23;11.95;;;;;;;;;;5033889;28;20056;-72
2021/03/23 06:54:22;;;;;;;26.42;14.05;;;;;;;;;;5022336;28;20112;-72
2021/03/23 06:57:19;;;;;;;29.77;14.57;;;;;;;;;;5011899;28;20054;-71
2021/03/23 06:59:58;;;;;;;23.23;12.32;;;;;;;;;;4996726;28;20590;-71
2021/03/23 07:02:39;;;;;;;26.35;12.80;;;;;;;;;;4996023;28;20057;-71
2021/03/23 07:05:34;;;;;;;26.85;13.90;;;;;;;;;;5029919;28;20057;-71
2021/03/23 07:08:09;;;;;;;26.35;13.43;;;;;;;;;;5032564;28;20455;-72
2021/03/23 07:10:35;;;;;;;37.22;17.30;;;;;;;;;;5033245;28;20053;-72
2021/03/23 07:13:03;;;;;;;34.50;14.40;;;;;;;;;;5032955;28;20054;-72
2021/03/23 07:15:32;;;;;;;30.67;14.18;;;;;;;;;;4995692;28;20053;-72
2021/03/23 07:18:11;;;;;;;28.25;14.48;;;;;;;;;;4996350;28;20072;-72
2021/03/23 07:20:41;;;;;;;28.63;14.10;;;;;;;;;;5012909;28;20046;-72
2021/03/23 07:23:36;;;;;;;28.48;13.60;;;;;;;;;;4979166;28;20096;-72
2021/03/23 07:26:27;;;;;;;23.98;13.80;;;;;;;;;;4994004;28;20121;-72
2021/03/23 07:29:11;;;;;;;30.30;13.48;;;;;;;;;;4978243;28;20057;-73
2021/03/23 07:31:59;;;;;;;33.80;16.05;;;;;;;;;;5011595;28;20081;-72
2021/03/23 07:34:29;;;;;;;28.92;14.38;;;;;;;;;;5011337;28;20050;-72
2021/03/23 07:37:09;;;;;;;28.25;13.40;;;;;;;;;;4993727;28;20064;-74
2021/03/23 07:39:43;;;;;;;25.90;13.70;;;;;;;;;;4993675;28;20046;-74
2021/03/23 07:42:28;;;;;;;22.88;12.88;;;;;;;;;;4962361;28;20512;-74
2021/03/23 07:45:10;;;;;;;23.20;12.93;;;;;;;;;;4994710;28;20054;-74
2021/03/23 07:47:59;;;;;;;26.05;13.35;;;;;;;;;;4979332;28;20053;-74
2021/03/23 07:50:32;;;;;;;26.08;13.70;;;;;;;;;;4994977;28;20053;-74
2021/03/23 07:53:12;;;;;;;26.65;14.32;;;;;;;;;;4978050;28;20058;-74
2021/03/23 07:55:38;;;;;;;31.83;14.85;;;;;;;;;;4992578;28;20057;-73
2021/03/23 07:58:16;;;;;;;25.80;13.35;;;;;;;;;;4977455;28;20109;-74
2021/03/23 08:01:01;;;;;;;29.73;15.43;;;;;;;;;;5012406;28;20057;-74
2021/03/23 08:03:46;;;;;;;29.02;15.07;;;;;;;;;;5018922;28;20042;-76
2021/03/23 08:06:41;;;;;;;32.75;14.57;;;;;;;;;;5015255;28;20716;-73
2021/03/23 08:09:25;;;;;;;27.63;14.40;;;;;;;;;;5008334;28;20693;-74
2021/03/23 08:12:37;;;;;;;29.92;15.30;;;;;;;;;;5027824;28;20049;-73
2021/03/23 08:15:37;;;;;;;29.85;14.32;;;;;;;;;;4999325;28;20057;-73
2021/03/23 08:18:18;;;;;;;31.55;16.30;;;;;;;;;;5025032;28;20050;-74
2021/03/23 08:20:53;;;;;;;29.98;15.82;;;;;;;;;;5024415;28;20264;-75
2021/03/23 08:23:57;;;;;;;29.35;16.23;;;;;;;;;;4991704;28;20103;-75
2021/03/23 08:26:32;;;;;;;28.08;15.98;;;;;;;;;;5025176;28;20082;-76
2021/03/23 08:29:19;;;;;;;34.08;17.38;;;;;;;;;;4999827;28;20050;-77
2021/03/23 08:32:23;;;;;;;30.95;14.98;;;;;;;;;;5011994;28;20054;-75
2021/03/23 08:35:01;;;;;;;32.03;16.98;;;;;;;;;;5008552;28;20052;-74
2021/03/23 08:37:52;;;;;;;34.25;17.02;;;;;;;;;;5018378;28;20049;-74
2021/03/23 08:40:30;;;;;;;33.47;16.02;;;;;;;;;;4995209;28;20049;-76
2021/03/23 08:42:56;;;;;;;33.35;16.00;;;;;;;;;;5014235;28;20507;-73
2021/03/23 08:45:23;;;;;;;31.75;16.05;;;;;;;;;;4991096;28;20065;-73
2021/03/23 08:47:55;;;;;;;30.48;16.50;;;;;;;;;;5028857;28;20484;-74
2021/03/23 08:50:34;;;;;;;29.98;16.55;;;;;;;;;;4997159;28;20054;-74
2021/03/23 08:53:01;;;;;;;28.45;16.65;;;;;;;;;;5011993;28;20051;-74
2021/03/23 08:55:32;;;;;;;30.92;17.17;;;;;;;;;;4990769;28;20049;-74
2021/03/23 08:58:05;;;;;;;30.02;16.58;;;;;;;;;;5004050;28;20045;-75
2021/03/23 09:00:45;;;;;;;29.92;15.65;;;;;;;;;;5001843;28;20049;-75
2021/03/23 09:03:15;;;;;;;31.63;16.38;;;;;;;;;;4997529;28;20045;-74
2021/03/23 09:05:50;;;;;;;31.02;15.00;;;;;;;;;;5011719;28;20064;-75
2021/03/23 09:08:23;;;;;;;28.65;15.10;;;;;;;;;;5005783;28;20120;-75
2021/03/23 09:11:05;;;;;;;31.77;16.23;;;;;;;;;;5029158;28;20046;-75
2021/03/23 09:13:35;;;;;;;32.07;14.73;;;;;;;;;;4981072;28;20315;-74
2021/03/23 09:16:16;;;;;;;26.83;14.65;;;;;;;;;;5029267;28;20312;-77
2021/03/23 09:19:08;;;;;;;26.55;14.38;;;;;;;;;;4980011;28;20057;-74
2021/03/23 09:21:57;;;;;;;25.60;13.80;;;;;;;;;;5000384;28;20136;-73
2021/03/23 09:24:35;;;;;;;23.35;13.75;;;;;;;;;;5035604;23;20107;-80
2021/03/23 09:27:08;;;;;;;26.02;13.48;;;;;;;;;;5034175;22;20045;-73
2021/03/23 09:29:39;;;;;;;20.75;11.98;;;;;;;;;;5029801;28;20052;-75
2021/03/23 09:32:19;;;;;;;22.27;14.65;;;;;;;;;;5017266;28;20061;-75
2021/03/23 09:38:34;;;;;;;19.98;12.77;;;;;;;;;;5020916;28;20057;-75
2021/03/23 09:41:04;;;;;;;26.85;13.55;;;;;;;;;;5012926;28;20132;-75
2021/03/23 09:43:39;;;;;;;29.27;13.05;;;;;;;;;;4998602;28;20052;-76
2021/03/23 09:46:08;;;;;;;23.08;13.35;;;;;;;;;;5024771;28;20053;-75
2021/03/23 09:48:44;;;;;;;18.95;11.07;;;;;;;;;;5029535;28;20045;-75
2021/03/23 09:51:31;;;;;;;12.18;6.82;;;;;;;;;;5041977;28;20419;-75
2021/03/23 09:53:57;;;;;;;15.52;8.52;;;;;;;;;;5010754;28;20049;-76
2021/03/23 09:56:26;;;;;;;19.65;12.30;;;;;;;;;;5004018;28;20415;-76
2021/03/23 09:59:18;;;;;;;21.60;12.32;;;;;;;;;;5009973;28;20120;-76
2021/03/23 10:02:16;;;;;;;23.17;11.85;;;;;;;;;;5017427;28;20049;-75
2021/03/23 10:04:43;;;;;;;16.27;9.57;;;;;;;;;;5000915;28;20099;-75
2021/03/23 10:07:28;;;;;;;11.88;7.20;;;;;;;;;;5014532;28;20503;-76
2021/03/23 10:09:55;;;;;;;14.95;7.95;;;;;;;;;;4999503;28;20049;-75
2021/03/23 10:12:30;;;;;;;18.00;8.40;;;;;;;;;;5026301;28;20068;-75
2021/03/23 10:14:56;;;;;;;15.27;8.75;;;;;;;;;;5006805;28;20053;-75
2021/03/23 10:17:28;;;;;;;14.20;8.68;;;;;;;;;;5006165;28;20057;-75
2021/03/23 10:19:57;;;;;;;20.92;11.18;;;;;;;;;;5045129;28;20108;-75
2021/03/23 10:22:28;;;;;;;19.88;11.27;;;;;;;;;;5019049;28;20049;-75
2021/03/23 10:24:56;;;;;;;16.80;9.90;;;;;;;;;;5032890;28;20053;-75
2021/03/23 10:27:29;;;;;;;14.18;9.25;;;;;;;;;;5025650;28;20099;-76
2021/03/23 10:30:05;;;;;;;15.95;9.80;;;;;;;;;;5026543;28;20057;-75
2021/03/23 10:32:35;;;;;;;15.10;8.65;;;;;;;;;;5007315;28;20052;-75
2021/03/23 10:35:07;;;;;;;17.05;9.43;;;;;;;;;;4991082;28;20092;-74
2021/03/23 10:37:34;;;;;;;20.35;9.65;;;;;;;;;;5044798;28;20125;-74
2021/03/23 10:40:00;;;;;;;16.20;9.40;;;;;;;;;;5043654;28;20049;-74
2021/03/23 10:42:35;;;;;;;16.77;8.75;;;;;;;;;;5044374;28;20044;-75
2021/03/23 10:45:26;;;;;;;12.98;8.80;;;;;;;;;;5024045;28;20049;-74
2021/03/23 10:48:12;;;;;;;14.80;8.27;;;;;;;;;;5040494;28;20412;-74
2021/03/23 10:50:39;;;;;;;15.32;8.25;;;;;;;;;;5043941;28;20053;-74
2021/03/23 10:53:10;;;;;;;21.52;9.57;;;;;;;;;;5036305;28;20054;-76
2021/03/23 10:55:49;;;;;;;10.38;6.07;;;;;;;;;;5043176;28;20045;-76
2021/03/23 11:02:18;;;;;;;10.85;5.93;;;;;;;;;;5041216;28;20147;-78
2021/03/23 11:05:18;;;;;;;15.60;8.60;;;;;;;;;;5018706;28;20049;-76
2021/03/23 11:07:51;;;;;;;14.15;6.65;;;;;;;;;;5028413;28;20146;-77
2021/03/23 11:10:49;;;;;;;9.82;6.03;;;;;;;;;;5023081;28;20077;-77
2021/03/23 11:14:21;;;;;;;13.75;7.78;;;;;;;;;;5015182;28;20068;-75
2021/03/23 11:17:00;;;;;;;9.40;6.25;;;;;;;;;;5043791;28;20404;-78
2021/03/23 11:19:42;;;;;;;13.38;7.35;;;;;;;;;;5000367;28;20045;-76
2021/03/23 11:22:21;;;;;;;15.00;8.43;;;;;;;;;;5012654;28;20055;-76
2021/03/23 11:24:56;;;;;;;14.18;8.15;;;;;;;;;;4995373;28;20462;-77
2021/03/23 11:28:12;;;;;;;17.15;9.35;;;;;;;;;;5011270;28;20060;-76
2021/03/23 11:31:35;;;;;;;14.10;8.98;;;;;;;;;;5042897;28;20048;-78
2021/03/23 11:34:15;;;;;;;15.60;8.93;;;;;;;;;;5042662;28;20095;-76
2021/03/23 11:36:53;;;;;;;17.27;9.90;;;;;;;;;;5015532;28;20451;-79
2021/03/23 11:39:20;;;;;;;23.27;10.85;;;;;;;;;;5023901;28;20041;-73
2021/03/23 11:42:26;;;;;;;19.90;10.05;;;;;;;;;;5041264;28;20049;-73
2021/03/23 11:44:52;;;;;;;16.08;9.93;;;;;;;;;;5025431;28;20476;-73
2021/03/23 11:47:23;;;;;;;21.67;12.20;;;;;;;;;;5016388;28;20053;-77
2021/03/23 11:50:12;;;;;;;23.98;12.23;;;;;;;;;;5049841;28;20066;-79
2021/03/23 11:53:18;;;;;;;20.55;11.38;;;;;;;;;;5029735;28;20057;-79
2021/03/23 11:55:47;;;;;;;18.10;10.73;;;;;;;;;;5008296;28;20060;-76
2021/03/23 11:58:14;;;;;;;20.70;10.57;;;;;;;;;;5038578;28;20049;-75
2021/03/23 12:00:54;;;;;;;17.17;9.95;;;;;;;;;;5032008;28;20061;-79
2021/03/23 12:03:21;;;;;;;17.13;9.95;;;;;;;;;;5010607;28;20135;-77
2021/03/23 12:05:48;;;;;;;14.88;9.48;;;;;;;;;;5039857;28;20053;-77
2021/03/23 12:08:33;;;;;;;17.88;10.02;;;;;;;;;;5000357;28;20045;-77
2021/03/23 12:11:24;;;;;;;16.67;9.50;;;;;;;;;;5039782;28;20052;-78
2021/03/23 12:14:31;;;;;;;18.65;9.32;;;;;;;;;;5044618;28;20118;-80
2021/03/23 12:17:07;;;;;;;19.83;11.57;;;;;;;;;;5031673;28;20053;-73
2021/03/23 12:20:00;;;;;;;20.60;11.65;;;;;;;;;;5037098;28;20447;-73
2021/03/23 12:22:33;;;;;;;17.52;10.05;;;;;;;;;;5037530;28;20059;-74
2021/03/23 12:24:59;;;;;;;18.73;10.35;;;;;;;;;;5038675;28;20462;-74
2021/03/23 12:27:26;;;;;;;17.83;8.80;;;;;;;;;;5036351;28;20103;-74
2021/03/23 12:29:52;;;;;;;17.45;10.10;;;;;;;;;;5039796;28;20053;-73
2021/03/23 12:32:18;;;;;;;20.65;10.80;;;;;;;;;;5038444;28;20543;-73
2021/03/23 12:34:45;;;;;;;19.67;12.20;;;;;;;;;;5036555;28;20422;-73
2021/03/23 12:37:12;;;;;;;21.55;11.63;;;;;;;;;;5038837;28;20049;-74
2021/03/23 12:39:39;;;;;;;20.15;11.73;;;;;;;;;;5011864;28;20044;-73
2021/03/23 12:42:06;;;;;;;22.45;11.90;;;;;;;;;;5037186;28;20488;-73
2021/03/23 12:44:33;;;;;;;19.77;11.00;;;;;;;;;;5020587;28;20483;-73
2021/03/23 12:46:59;;;;;;;22.70;11.68;;;;;;;;;;5015646;28;20409;-73
2021/03/23 12:49:25;;;;;;;18.83;10.07;;;;;;;;;;5005037;28;20063;-72
2021/03/23 12:51:56;;;;;;;18.33;10.90;;;;;;;;;;5040276;28;20057;-72
2021/03/23 12:54:31;;;;;;;18.48;10.52;;;;;;;;;;5011891;28;20103;-72
2021/03/23 12:56:58;;;;;;;18.67;11.15;;;;;;;;;;5029552;28;20146;-72
2021/03/23 12:59:28;;;;;;;20.50;11.50;;;;;;;;;;5002740;28;20076;-73
2021/03/23 13:01:55;;;;;;;20.20;10.38;;;;;;;;;;5027576;28;20567;-71
2021/03/23 13:04:23;;;;;;;18.77;10.27;;;;;;;;;;5000240;28;20053;-72
2021/03/23 13:06:54;;;;;;;18.63;10.75;;;;;;;;;;5035973;28;20055;-75
2021/03/23 13:09:20;;;;;;;19.67;11.00;;;;;;;;;;5033913;28;20041;-75
2021/03/23 13:11:50;;;;;;;17.65;10.23;;;;;;;;;;5039485;28;20048;-74
2021/03/23 13:14:24;;;;;;;18.25;11.10;;;;;;;;;;5039150;28;20103;-71
2021/03/23 13:16:51;;;;;;;18.70;10.25;;;;;;;;;;5040552;28;20515;-71
2021/03/23 13:19:18;;;;;;;17.92;11.13;;;;;;;;;;5023224;28;20094;-71
2021/03/23 13:21:47;;;;;;;21.45;11.18;;;;;;;;;;5027455;28;20056;-72
2021/03/23 13:24:30;;;;;;;19.08;10.93;;;;;;;;;;5030343;28;20081;-71
2021/03/23 13:27:11;;;;;;;18.77;9.98;;;;;;;;;;5038502;28;20082;-71
2021/03/23 13:29:38;;;;;;;22.63;10.55;;;;;;;;;;5010877;28;20399;-71
2021/03/23 13:32:04;;;;;;;17.75;10.68;;;;;;;;;;5038172;28;20738;-71
2021/03/23 13:34:30;;;;;;;19.67;11.88;;;;;;;;;;5030193;28;20049;-71
2021/03/23 13:37:04;;;;;;;19.77;11.35;;;;;;;;;;5040219;28;20049;-71
2021/03/23 13:39:33;;;;;;;20.50;10.57;;;;;;;;;;5026947;28;20451;-71
2021/03/23 13:42:23;;;;;;;18.33;11.32;;;;;;;;;;5009080;28;20049;-71
2021/03/23 13:45:26;;;;;;;16.13;10.05;;;;;;;;;;5030261;28;20056;-71
2021/03/23 13:47:52;;;;;;;19.92;9.63;;;;;;;;;;5016603;28;20092;-71
2021/03/23 13:50:21;;;;;;;17.23;10.02;;;;;;;;;;5049794;28;20049;-71
2021/03/23 13:52:50;;;;;;;14.93;10.20;;;;;;;;;;5051584;28;20420;-72
2021/03/23 13:55:24;;;;;;;14.63;8.80;;;;;;;;;;5045841;28;20095;-73
2021/03/23 13:57:51;;;;;;;16.83;9.93;;;;;;;;;;5016149;28;20194;-72
2021/03/23 14:00:23;;;;;;;15.05;9.77;;;;;;;;;;5034154;28;20115;-72
2021/03/23 14:02:50;;;;;;;19.40;9.75;;;;;;;;;;5016061;28;20061;-72
2021/03/23 14:05:16;;;;;;;18.67;9.40;;;;;;;;;;4999571;28;20535;-72
2021/03/23 14:07:45;;;;;;;15.00;9.13;;;;;;;;;;5032998;28;20053;-72
2021/03/23 14:10:17;;;;;;;15.80;8.77;;;;;;;;;;4999904;28;20492;-73
2021/03/23 14:12:43;;;;;;;13.82;7.85;;;;;;;;;;5015670;28;20057;-73
2021/03/23 14:15:19;;;;;;;14.88;8.18;;;;;;;;;;5033231;28;20053;-73
2021/03/23 14:17:45;;;;;;;15.10;8.25;;;;;;;;;;5000318;28;20136;-73
2021/03/23 14:20:12;;;;;;;12.27;7.95;;;;;;;;;;5033646;28;20500;-72
2021/03/23 14:22:38;;;;;;;12.75;8.60;;;;;;;;;;5015525;28;20054;-72
2021/03/23 14:25:19;;;;;;;12.27;7.80;;;;;;;;;;5033339;28;20049;-72
2021/03/23 14:27:46;;;;;;;14.77;8.60;;;;;;;;;;5015326;28;20049;-73
2021/03/23 14:30:20;;;;;;;15.60;8.05;;;;;;;;;;5033374;28;20053;-72
2021/03/23 14:32:47;;;;;;;13.73;8.57;;;;;;;;;;4999702;28;20057;-72
2021/03/23 14:35:15;;;;;;;12.60;8.63;;;;;;;;;;5015257;28;20049;-72
2021/03/23 14:37:43;;;;;;;12.13;8.05;;;;;;;;;;5033466;28;20053;-72
2021/03/23 14:40:18;;;;;;;13.27;8.55;;;;;;;;;;5015742;28;20562;-72
2021/03/23 14:42:44;;;;;;;14.00;9.38;;;;;;;;;;5015007;28;20069;-73
2021/03/23 14:45:13;;;;;;;15.73;10.40;;;;;;;;;;5015051;28;20050;-73
2021/03/23 14:47:39;;;;;;;13.88;8.68;;;;;;;;;;5015197;28;20107;-72
2021/03/23 14:50:06;;;;;;;13.07;8.65;;;;;;;;;;5014295;28;20057;-72
2021/03/23 14:52:32;;;;;;;13.40;8.88;;;;;;;;;;4998623;28;20046;-72
2021/03/23 14:55:00;;;;;;;12.00;7.90;;;;;;;;;;5015213;28;20130;-72
2021/03/23 14:57:28;;;;;;;14.73;9.02;;;;;;;;;;5014707;28;20079;-72
2021/03/23 14:59:55;;;;;;;10.77;7.32;;;;;;;;;;4998967;28;20080;-72
2021/03/23 15:02:21;;;;;;;12.60;7.78;;;;;;;;;;5015647;28;20107;-73